sensor_id;sensor_type;location;lat;lon;timestamp;P1;durP1;ratioP1;P2;durP2;ratioP2
67185;SDS011;54116;53.518;49.398;2023-04-16T00:00:35;8.50;;;2.15;;
67185;SDS011;54116;53.518;49.398;2023-04-16T00:03:01;5.35;;;2.17;;
67185;SDS011;54116;53.518;49.398;2023-04-16T00:05:28;4.38;;;1.88;;
67185;SDS011;54116;53.518;49.398;2023-04-16T00:07:54;4.10;;;1.90;;
67185;SDS011;54116;53.518;49.398;2023-04-16T00:10:20;6.43;;;2.13;;
67185;SDS011;54116;53.518;49.398;2023-04-16T00:12:46;5.55;;;2.13;;
67185;SDS011;54116;53.518;49.398;2023-04-16T00:15:13;5.63;;;2.05;;
67185;SDS011;54116;53.518;49.398;2023-04-16T00:17:39;7.75;;;2.08;;
67185;SDS011;54116;53.518;49.398;2023-04-16T00:20:05;6.63;;;1.98;;
67185;SDS011;54116;53.518;49.398;2023-04-16T00:22:33;6.68;;;2.30;;
67185;SDS011;54116;53.518;49.398;2023-04-16T00:24:59;6.78;;;2.13;;
67185;SDS011;54116;53.518;49.398;2023-04-16T00:27:26;7.55;;;1.83;;
67185;SDS011;54116;53.518;49.398;2023-04-16T00:29:52;5.97;;;1.70;;
67185;SDS011;54116;53.518;49.398;2023-04-16T00:32:18;6.88;;;2.30;;
67185;SDS011;54116;53.518;49.398;2023-04-16T00:34:45;6.40;;;2.33;;
67185;SDS011;54116;53.518;49.398;2023-04-16T00:37:11;6.32;;;2.35;;
67185;SDS011;54116;53.518;49.398;2023-04-16T00:39:37;8.15;;;1.83;;
67185;SDS011;54116;53.518;49.398;2023-04-16T00:42:03;6.55;;;2.47;;
67185;SDS011;54116;53.518;49.398;2023-04-16T00:44:30;5.38;;;2.45;;
67185;SDS011;54116;53.518;49.398;2023-04-16T00:46:59;7.78;;;1.95;;
67185;SDS011;54116;53.518;49.398;2023-04-16T00:49:26;4.53;;;1.90;;
67185;SDS011;54116;53.518;49.398;2023-04-16T00:51:54;7.15;;;2.20;;
67185;SDS011;54116;53.518;49.398;2023-04-16T00:59:14;4.35;;;1.63;;
67185;SDS011;54116;53.518;49.398;2023-04-16T01:01:40;6.68;;;2.40;;
67185;SDS011;54116;53.518;49.398;2023-04-16T01:04:06;6.75;;;2.85;;
67185;SDS011;54116;53.518;49.398;2023-04-16T01:08:59;7.93;;;3.05;;
67185;SDS011;54116;53.518;49.398;2023-04-16T01:11:25;4.97;;;2.05;;
67185;SDS011;54116;53.518;49.398;2023-04-16T01:13:52;6.45;;;2.17;;
67185;SDS011;54116;53.518;49.398;2023-04-16T01:16:18;6.22;;;2.20;;
67185;SDS011;54116;53.518;49.398;2023-04-16T01:18:45;5.60;;;1.73;;
67185;SDS011;54116;53.518;49.398;2023-04-16T01:21:11;6.50;;;1.60;;
67185;SDS011;54116;53.518;49.398;2023-04-16T01:23:38;8.75;;;1.95;;
67185;SDS011;54116;53.518;49.398;2023-04-16T01:26:04;8.10;;;2.17;;
67185;SDS011;54116;53.518;49.398;2023-04-16T01:28:30;3.95;;;1.75;;
67185;SDS011;54116;53.518;49.398;2023-04-16T01:30:57;4.78;;;2.40;;
67185;SDS011;54116;53.518;49.398;2023-04-16T01:33:23;7.72;;;2.08;;
67185;SDS011;54116;53.518;49.398;2023-04-16T01:35:49;8.07;;;2.28;;
67185;SDS011;54116;53.518;49.398;2023-04-16T01:38:16;4.95;;;2.05;;
67185;SDS011;54116;53.518;49.398;2023-04-16T01:40:42;9.27;;;2.13;;
67185;SDS011;54116;53.518;49.398;2023-04-16T01:43:08;6.50;;;2.17;;
67185;SDS011;54116;53.518;49.398;2023-04-16T01:45:35;6.20;;;1.98;;
67185;SDS011;54116;53.518;49.398;2023-04-16T01:48:02;8.63;;;2.42;;
67185;SDS011;54116;53.518;49.398;2023-04-16T01:50:28;6.20;;;2.30;;
67185;SDS011;54116;53.518;49.398;2023-04-16T01:52:55;5.93;;;2.03;;
67185;SDS011;54116;53.518;49.398;2023-04-16T01:55:21;8.23;;;2.10;;
67185;SDS011;54116;53.518;49.398;2023-04-16T01:57:48;7.03;;;2.20;;
67185;SDS011;54116;53.518;49.398;2023-04-16T02:00:14;7.72;;;2.58;;
67185;SDS011;54116;53.518;49.398;2023-04-16T02:05:07;5.72;;;2.10;;
67185;SDS011;54116;53.518;49.398;2023-04-16T02:07:33;4.43;;;1.50;;
67185;SDS011;54116;53.518;49.398;2023-04-16T02:12:26;5.85;;;2.05;;
67185;SDS011;54116;53.518;49.398;2023-04-16T02:14:52;4.60;;;1.67;;
67185;SDS011;54116;53.518;49.398;2023-04-16T02:17:19;4.07;;;1.83;;
67185;SDS011;54116;53.518;49.398;2023-04-16T02:19:45;7.15;;;2.80;;
67185;SDS011;54116;53.518;49.398;2023-04-16T02:22:12;5.50;;;2.45;;
67185;SDS011;54116;53.518;49.398;2023-04-16T02:24:38;5.43;;;2.10;;
67185;SDS011;54116;53.518;49.398;2023-04-16T02:27:04;5.57;;;2.28;;
67185;SDS011;54116;53.518;49.398;2023-04-16T02:29:30;6.53;;;2.25;;
67185;SDS011;54116;53.518;49.398;2023-04-16T02:31:57;5.45;;;1.48;;
67185;SDS011;54116;53.518;49.398;2023-04-16T02:34:24;6.93;;;2.17;;
67185;SDS011;54116;53.518;49.398;2023-04-16T02:36:50;7.30;;;2.28;;
67185;SDS011;54116;53.518;49.398;2023-04-16T02:39:16;5.82;;;2.13;;
67185;SDS011;54116;53.518;49.398;2023-04-16T02:41:43;8.20;;;2.35;;
67185;SDS011;54116;53.518;49.398;2023-04-16T02:44:09;5.60;;;2.30;;
67185;SDS011;54116;53.518;49.398;2023-04-16T02:46:35;7.35;;;2.40;;
67185;SDS011;54116;53.518;49.398;2023-04-16T02:49:02;7.80;;;2.38;;
67185;SDS011;54116;53.518;49.398;2023-04-16T02:51:28;6.15;;;2.22;;
67185;SDS011;54116;53.518;49.398;2023-04-16T02:53:54;5.25;;;1.95;;
67185;SDS011;54116;53.518;49.398;2023-04-16T02:56:20;5.20;;;2.50;;
67185;SDS011;54116;53.518;49.398;2023-04-16T02:58:47;4.10;;;1.88;;
67185;SDS011;54116;53.518;49.398;2023-04-16T03:03:39;4.65;;;2.08;;
67185;SDS011;54116;53.518;49.398;2023-04-16T03:08:32;5.10;;;2.30;;
67185;SDS011;54116;53.518;49.398;2023-04-16T03:13:24;5.85;;;2.20;;
67185;SDS011;54116;53.518;49.398;2023-04-16T03:15:50;6.55;;;2.35;;
67185;SDS011;54116;53.518;49.398;2023-04-16T03:18:20;6.00;;;2.40;;
67185;SDS011;54116;53.518;49.398;2023-04-16T03:20:50;5.40;;;2.20;;
67185;SDS011;54116;53.518;49.398;2023-04-16T03:23:17;6.68;;;2.47;;
67185;SDS011;54116;53.518;49.398;2023-04-16T03:25:43;7.70;;;2.55;;
67185;SDS011;54116;53.518;49.398;2023-04-16T03:28:11;5.45;;;2.40;;
67185;SDS011;54116;53.518;49.398;2023-04-16T03:30:38;6.28;;;2.65;;
67185;SDS011;54116;53.518;49.398;2023-04-16T03:33:04;6.32;;;2.30;;
67185;SDS011;54116;53.518;49.398;2023-04-16T03:35:30;5.32;;;2.25;;
67185;SDS011;54116;53.518;49.398;2023-04-16T03:37:57;5.82;;;2.38;;
67185;SDS011;54116;53.518;49.398;2023-04-16T03:40:23;6.80;;;2.92;;
67185;SDS011;54116;53.518;49.398;2023-04-16T03:42:49;5.40;;;2.50;;
67185;SDS011;54116;53.518;49.398;2023-04-16T03:45:16;9.85;;;2.85;;
67185;SDS011;54116;53.518;49.398;2023-04-16T03:47:42;6.38;;;2.70;;
67185;SDS011;54116;53.518;49.398;2023-04-16T03:50:08;6.35;;;2.17;;
67185;SDS011;54116;53.518;49.398;2023-04-16T03:52:36;6.70;;;3.00;;
67185;SDS011;54116;53.518;49.398;2023-04-16T03:55:02;7.13;;;2.20;;
67185;SDS011;54116;53.518;49.398;2023-04-16T03:57:29;8.40;;;2.75;;
67185;SDS011;54116;53.518;49.398;2023-04-16T03:59:55;6.20;;;2.70;;
67185;SDS011;54116;53.518;49.398;2023-04-16T04:02:21;8.20;;;2.45;;
67185;SDS011;54116;53.518;49.398;2023-04-16T04:04:48;8.57;;;3.70;;
67185;SDS011;54116;53.518;49.398;2023-04-16T04:07:14;8.15;;;2.50;;
67185;SDS011;54116;53.518;49.398;2023-04-16T04:09:41;9.93;;;3.97;;
67185;SDS011;54116;53.518;49.398;2023-04-16T04:12:07;6.20;;;2.55;;
67185;SDS011;54116;53.518;49.398;2023-04-16T04:14:34;8.50;;;2.50;;
67185;SDS011;54116;53.518;49.398;2023-04-16T04:17:04;7.15;;;3.05;;
67185;SDS011;54116;53.518;49.398;2023-04-16T04:19:31;10.18;;;3.33;;
67185;SDS011;54116;53.518;49.398;2023-04-16T04:21:57;5.53;;;2.83;;
67185;SDS011;54116;53.518;49.398;2023-04-16T04:24:24;6.22;;;2.90;;
67185;SDS011;54116;53.518;49.398;2023-04-16T04:26:51;19.15;;;7.35;;
67185;SDS011;54116;53.518;49.398;2023-04-16T04:29:17;25.80;;;9.48;;
67185;SDS011;54116;53.518;49.398;2023-04-16T04:31:44;35.38;;;11.70;;
67185;SDS011;54116;53.518;49.398;2023-04-16T04:34:10;6.82;;;2.95;;
67185;SDS011;54116;53.518;49.398;2023-04-16T04:36:37;7.22;;;2.90;;
67185;SDS011;54116;53.518;49.398;2023-04-16T04:39:03;14.70;;;8.38;;
67185;SDS011;54116;53.518;49.398;2023-04-16T04:41:29;8.93;;;4.72;;
67185;SDS011;54116;53.518;49.398;2023-04-16T04:43:56;5.85;;;2.65;;
67185;SDS011;54116;53.518;49.398;2023-04-16T04:46:22;5.50;;;2.63;;
67185;SDS011;54116;53.518;49.398;2023-04-16T04:48:48;10.45;;;6.40;;
67185;SDS011;54116;53.518;49.398;2023-04-16T04:51:15;16.48;;;5.25;;
67185;SDS011;54116;53.518;49.398;2023-04-16T04:53:41;14.07;;;9.40;;
67185;SDS011;54116;53.518;49.398;2023-04-16T04:56:07;6.45;;;2.00;;
67185;SDS011;54116;53.518;49.398;2023-04-16T04:58:34;7.40;;;2.88;;
67185;SDS011;54116;53.518;49.398;2023-04-16T05:01:00;6.55;;;2.17;;
67185;SDS011;54116;53.518;49.398;2023-04-16T05:03:26;6.88;;;2.13;;
67185;SDS011;54116;53.518;49.398;2023-04-16T05:05:52;5.60;;;2.58;;
67185;SDS011;54116;53.518;49.398;2023-04-16T05:08:19;4.15;;;2.00;;
67185;SDS011;54116;53.518;49.398;2023-04-16T05:10:45;6.03;;;2.30;;
67185;SDS011;54116;53.518;49.398;2023-04-16T05:13:12;6.85;;;2.95;;
67185;SDS011;54116;53.518;49.398;2023-04-16T05:15:57;7.15;;;2.05;;
67185;SDS011;54116;53.518;49.398;2023-04-16T05:18:23;6.18;;;2.08;;
67185;SDS011;54116;53.518;49.398;2023-04-16T05:20:49;6.32;;;2.08;;
67185;SDS011;54116;53.518;49.398;2023-04-16T05:23:16;4.45;;;1.73;;
67185;SDS011;54116;53.518;49.398;2023-04-16T05:25:42;5.63;;;2.05;;
67185;SDS011;54116;53.518;49.398;2023-04-16T05:28:09;5.10;;;2.10;;
67185;SDS011;54116;53.518;49.398;2023-04-16T05:30:35;8.07;;;3.28;;
67185;SDS011;54116;53.518;49.398;2023-04-16T05:33:01;7.38;;;2.00;;
67185;SDS011;54116;53.518;49.398;2023-04-16T05:35:28;5.05;;;1.75;;
67185;SDS011;54116;53.518;49.398;2023-04-16T05:37:54;4.57;;;1.90;;
67185;SDS011;54116;53.518;49.398;2023-04-16T05:40:21;7.00;;;2.28;;
67185;SDS011;54116;53.518;49.398;2023-04-16T05:42:47;4.70;;;2.38;;
67185;SDS011;54116;53.518;49.398;2023-04-16T05:45:14;4.90;;;2.10;;
67185;SDS011;54116;53.518;49.398;2023-04-16T05:47:40;6.63;;;2.17;;
67185;SDS011;54116;53.518;49.398;2023-04-16T05:50:06;4.45;;;2.03;;
67185;SDS011;54116;53.518;49.398;2023-04-16T05:52:33;7.63;;;2.63;;
67185;SDS011;54116;53.518;49.398;2023-04-16T05:54:59;5.78;;;1.48;;
67185;SDS011;54116;53.518;49.398;2023-04-16T05:57:27;5.75;;;2.28;;
67185;SDS011;54116;53.518;49.398;2023-04-16T05:59:53;4.47;;;1.65;;
67185;SDS011;54116;53.518;49.398;2023-04-16T06:02:20;6.32;;;2.17;;
67185;SDS011;54116;53.518;49.398;2023-04-16T06:04:46;5.10;;;2.00;;
67185;SDS011;54116;53.518;49.398;2023-04-16T06:07:14;5.13;;;1.33;;
67185;SDS011;54116;53.518;49.398;2023-04-16T06:09:40;6.20;;;3.03;;
67185;SDS011;54116;53.518;49.398;2023-04-16T06:12:07;4.88;;;2.88;;
67185;SDS011;54116;53.518;49.398;2023-04-16T06:14:33;3.80;;;1.45;;
67185;SDS011;54116;53.518;49.398;2023-04-16T06:16:59;4.13;;;2.05;;
67185;SDS011;54116;53.518;49.398;2023-04-16T06:19:26;5.65;;;2.20;;
67185;SDS011;54116;53.518;49.398;2023-04-16T06:21:52;4.03;;;1.67;;
67185;SDS011;54116;53.518;49.398;2023-04-16T06:24:18;5.00;;;1.83;;
67185;SDS011;54116;53.518;49.398;2023-04-16T06:26:45;3.75;;;1.52;;
67185;SDS011;54116;53.518;49.398;2023-04-16T06:29:11;4.35;;;1.88;;
67185;SDS011;54116;53.518;49.398;2023-04-16T06:31:38;5.70;;;2.10;;
67185;SDS011;54116;53.518;49.398;2023-04-16T06:34:04;4.57;;;1.58;;
67185;SDS011;54116;53.518;49.398;2023-04-16T06:36:30;5.18;;;1.90;;
67185;SDS011;54116;53.518;49.398;2023-04-16T06:38:57;3.65;;;1.83;;
67185;SDS011;54116;53.518;49.398;2023-04-16T06:41:23;3.50;;;1.65;;
67185;SDS011;54116;53.518;49.398;2023-04-16T06:43:51;7.07;;;1.70;;
67185;SDS011;54116;53.518;49.398;2023-04-16T06:46:17;3.53;;;1.70;;
67185;SDS011;54116;53.518;49.398;2023-04-16T06:49:02;4.90;;;1.40;;
67185;SDS011;54116;53.518;49.398;2023-04-16T06:51:28;7.18;;;1.25;;
67185;SDS011;54116;53.518;49.398;2023-04-16T06:53:55;3.22;;;0.93;;
67185;SDS011;54116;53.518;49.398;2023-04-16T06:56:21;3.92;;;0.95;;
67185;SDS011;54116;53.518;49.398;2023-04-16T06:58:48;5.88;;;1.50;;
67185;SDS011;54116;53.518;49.398;2023-04-16T07:01:15;5.30;;;1.70;;
67185;SDS011;54116;53.518;49.398;2023-04-16T07:03:42;5.05;;;1.88;;
67185;SDS011;54116;53.518;49.398;2023-04-16T07:06:09;3.00;;;1.08;;
67185;SDS011;54116;53.518;49.398;2023-04-16T07:11:39;4.40;;;1.90;;
67185;SDS011;54116;53.518;49.398;2023-04-16T07:14:06;3.83;;;1.95;;
67185;SDS011;54116;53.518;49.398;2023-04-16T07:19:17;6.32;;;1.63;;
67185;SDS011;54116;53.518;49.398;2023-04-16T07:21:44;4.63;;;1.88;;
67185;SDS011;54116;53.518;49.398;2023-04-16T07:24:10;4.20;;;1.77;;
67185;SDS011;54116;53.518;49.398;2023-04-16T07:26:37;4.07;;;1.38;;
67185;SDS011;54116;53.518;49.398;2023-04-16T07:29:03;4.18;;;1.40;;
67185;SDS011;54116;53.518;49.398;2023-04-16T07:31:30;5.18;;;1.33;;
67185;SDS011;54116;53.518;49.398;2023-04-16T07:33:56;6.22;;;1.33;;
67185;SDS011;54116;53.518;49.398;2023-04-16T07:36:41;8.85;;;1.83;;
67185;SDS011;54116;53.518;49.398;2023-04-16T07:39:07;5.13;;;1.60;;
67185;SDS011;54116;53.518;49.398;2023-04-16T07:41:35;3.78;;;1.55;;
67185;SDS011;54116;53.518;49.398;2023-04-16T07:44:02;5.78;;;1.88;;
67185;SDS011;54116;53.518;49.398;2023-04-16T07:46:28;4.55;;;1.88;;
67185;SDS011;54116;53.518;49.398;2023-04-16T07:48:55;3.80;;;1.80;;
67185;SDS011;54116;53.518;49.398;2023-04-16T07:51:21;5.03;;;1.77;;
67185;SDS011;54116;53.518;49.398;2023-04-16T07:54:07;4.10;;;1.40;;
67185;SDS011;54116;53.518;49.398;2023-04-16T07:56:33;5.85;;;1.45;;
67185;SDS011;54116;53.518;49.398;2023-04-16T07:58:59;2.72;;;1.25;;
67185;SDS011;54116;53.518;49.398;2023-04-16T08:01:26;7.95;;;2.35;;
67185;SDS011;54116;53.518;49.398;2023-04-16T08:03:52;5.60;;;2.10;;
67185;SDS011;54116;53.518;49.398;2023-04-16T08:06:19;4.53;;;1.33;;
67185;SDS011;54116;53.518;49.398;2023-04-16T08:08:50;5.32;;;1.50;;
67185;SDS011;54116;53.518;49.398;2023-04-16T08:11:17;5.35;;;1.58;;
67185;SDS011;54116;53.518;49.398;2023-04-16T08:13:43;4.97;;;1.55;;
67185;SDS011;54116;53.518;49.398;2023-04-16T08:16:28;3.47;;;1.35;;
67185;SDS011;54116;53.518;49.398;2023-04-16T08:18:54;3.17;;;1.50;;
67185;SDS011;54116;53.518;49.398;2023-04-16T08:21:21;3.33;;;1.40;;
67185;SDS011;54116;53.518;49.398;2023-04-16T08:24:06;4.82;;;1.55;;
67185;SDS011;54116;53.518;49.398;2023-04-16T08:26:32;7.05;;;1.40;;
67185;SDS011;54116;53.518;49.398;2023-04-16T08:29:17;3.50;;;1.73;;
67185;SDS011;54116;53.518;49.398;2023-04-16T08:32:02;5.25;;;1.48;;
67185;SDS011;54116;53.518;49.398;2023-04-16T08:34:28;6.95;;;2.22;;
67185;SDS011;54116;53.518;49.398;2023-04-16T08:36:55;11.85;;;1.42;;
67185;SDS011;54116;53.518;49.398;2023-04-16T08:39:21;4.93;;;1.33;;
67185;SDS011;54116;53.518;49.398;2023-04-16T08:42:07;4.97;;;1.85;;
67185;SDS011;54116;53.518;49.398;2023-04-16T08:45:16;3.90;;;1.70;;
67185;SDS011;54116;53.518;49.398;2023-04-16T08:47:47;8.75;;;1.75;;
67185;SDS011;54116;53.518;49.398;2023-04-16T08:50:18;7.97;;;1.67;;
67185;SDS011;54116;53.518;49.398;2023-04-16T08:53:02;5.85;;;1.50;;
67185;SDS011;54116;53.518;49.398;2023-04-16T08:58:18;3.85;;;1.40;;
67185;SDS011;54116;53.518;49.398;2023-04-16T09:00:51;3.13;;;1.30;;
67185;SDS011;54116;53.518;49.398;2023-04-16T09:03:36;5.03;;;1.60;;
67185;SDS011;54116;53.518;49.398;2023-04-16T09:06:04;2.88;;;1.10;;
67185;SDS011;54116;53.518;49.398;2023-04-16T09:08:32;3.25;;;1.00;;
67185;SDS011;54116;53.518;49.398;2023-04-16T09:11:00;2.42;;;1.20;;
67185;SDS011;54116;53.518;49.398;2023-04-16T09:13:26;5.53;;;1.42;;
67185;SDS011;54116;53.518;49.398;2023-04-16T09:15:53;3.65;;;1.63;;
67185;SDS011;54116;53.518;49.398;2023-04-16T09:21:25;7.28;;;1.92;;
67185;SDS011;54116;53.518;49.398;2023-04-16T09:24:10;3.97;;;2.13;;
67185;SDS011;54116;53.518;49.398;2023-04-16T09:26:55;4.00;;;1.17;;
67185;SDS011;54116;53.518;49.398;2023-04-16T09:29:35;5.38;;;1.50;;
67185;SDS011;54116;53.518;49.398;2023-04-16T09:42:49;5.88;;;1.52;;
67185;SDS011;54116;53.518;49.398;2023-04-16T09:45:33;3.95;;;0.98;;
67185;SDS011;54116;53.518;49.398;2023-04-16T09:48:17;5.07;;;1.90;;
67185;SDS011;54116;53.518;49.398;2023-04-16T09:54:00;3.97;;;2.22;;
67185;SDS011;54116;53.518;49.398;2023-04-16T10:03:04;5.00;;;2.22;;
67185;SDS011;54116;53.518;49.398;2023-04-16T10:05:31;4.45;;;2.20;;
67185;SDS011;54116;53.518;49.398;2023-04-16T10:13:34;9.02;;;3.03;;
67185;SDS011;54116;53.518;49.398;2023-04-16T10:16:20;6.22;;;1.92;;
67185;SDS011;54116;53.518;49.398;2023-04-16T10:18:47;3.47;;;1.50;;
67185;SDS011;54116;53.518;49.398;2023-04-16T10:24:17;4.68;;;1.00;;
67185;SDS011;54116;53.518;49.398;2023-04-16T10:26:44;5.50;;;1.65;;
67185;SDS011;54116;53.518;49.398;2023-04-16T10:29:30;3.72;;;1.40;;
67185;SDS011;54116;53.518;49.398;2023-04-16T10:31:57;3.50;;;1.67;;
67185;SDS011;54116;53.518;49.398;2023-04-16T10:34:24;12.38;;;1.90;;
67185;SDS011;54116;53.518;49.398;2023-04-16T10:36:52;5.03;;;1.30;;
67185;SDS011;54116;53.518;49.398;2023-04-16T10:42:08;3.30;;;1.58;;
67185;SDS011;54116;53.518;49.398;2023-04-16T10:44:36;3.17;;;1.48;;
67185;SDS011;54116;53.518;49.398;2023-04-16T10:47:11;3.22;;;0.73;;
67185;SDS011;54116;53.518;49.398;2023-04-16T10:49:56;6.03;;;1.52;;
67185;SDS011;54116;53.518;49.398;2023-04-16T10:52:41;4.55;;;1.50;;
67185;SDS011;54116;53.518;49.398;2023-04-16T10:55:14;11.32;;;1.30;;
67185;SDS011;54116;53.518;49.398;2023-04-16T10:57:42;7.78;;;1.80;;
67185;SDS011;54116;53.518;49.398;2023-04-16T11:00:21;3.10;;;1.05;;
67185;SDS011;54116;53.518;49.398;2023-04-16T11:06:11;2.50;;;1.25;;
67185;SDS011;54116;53.518;49.398;2023-04-16T11:08:45;4.30;;;1.40;;
67185;SDS011;54116;53.518;49.398;2023-04-16T11:11:12;5.50;;;1.27;;
67185;SDS011;54116;53.518;49.398;2023-04-16T11:13:41;3.65;;;1.20;;
67185;SDS011;54116;53.518;49.398;2023-04-16T11:16:11;4.30;;;1.50;;
67185;SDS011;54116;53.518;49.398;2023-04-16T11:18:38;3.42;;;0.77;;
67185;SDS011;54116;53.518;49.398;2023-04-16T11:21:09;3.38;;;1.20;;
67185;SDS011;54116;53.518;49.398;2023-04-16T11:23:50;7.78;;;0.80;;
67185;SDS011;54116;53.518;49.398;2023-04-16T11:26:24;2.80;;;0.95;;
67185;SDS011;54116;53.518;49.398;2023-04-16T11:28:53;4.32;;;1.40;;
67185;SDS011;54116;53.518;49.398;2023-04-16T11:34:46;3.17;;;0.90;;
67185;SDS011;54116;53.518;49.398;2023-04-16T11:37:12;1.73;;;0.98;;
67185;SDS011;54116;53.518;49.398;2023-04-16T11:39:49;4.63;;;1.13;;
67185;SDS011;54116;53.518;49.398;2023-04-16T11:42:20;4.00;;;1.23;;
67185;SDS011;54116;53.518;49.398;2023-04-16T11:44:51;2.90;;;1.08;;
67185;SDS011;54116;53.518;49.398;2023-04-16T11:47:19;4.53;;;1.10;;
67185;SDS011;54116;53.518;49.398;2023-04-16T11:49:46;3.92;;;1.30;;
67185;SDS011;54116;53.518;49.398;2023-04-16T11:52:14;5.47;;;0.98;;
67185;SDS011;54116;53.518;49.398;2023-04-16T11:54:53;7.25;;;1.55;;
67185;SDS011;54116;53.518;49.398;2023-04-16T11:57:26;3.65;;;1.00;;
67185;SDS011;54116;53.518;49.398;2023-04-16T11:59:54;3.85;;;1.25;;
67185;SDS011;54116;53.518;49.398;2023-04-16T12:11:07;6.85;;;1.42;;
67185;SDS011;54116;53.518;49.398;2023-04-16T12:22:52;3.10;;;0.63;;
67185;SDS011;54116;53.518;49.398;2023-04-16T12:25:21;4.25;;;1.75;;
67185;SDS011;54116;53.518;49.398;2023-04-16T12:27:50;2.55;;;0.77;;
67185;SDS011;54116;53.518;49.398;2023-04-16T12:30:21;5.35;;;1.42;;
67185;SDS011;54116;53.518;49.398;2023-04-16T12:32:48;4.05;;;1.10;;
67185;SDS011;54116;53.518;49.398;2023-04-16T12:38:19;5.22;;;1.38;;
67185;SDS011;54116;53.518;49.398;2023-04-16T12:40:46;4.05;;;1.30;;
67185;SDS011;54116;53.518;49.398;2023-04-16T12:43:14;8.85;;;1.75;;
67185;SDS011;54116;53.518;49.398;2023-04-16T12:45:59;9.38;;;1.40;;
67185;SDS011;54116;53.518;49.398;2023-04-16T12:48:26;6.35;;;1.15;;
67185;SDS011;54116;53.518;49.398;2023-04-16T12:53:57;4.88;;;1.45;;
67185;SDS011;54116;53.518;49.398;2023-04-16T12:56:24;7.43;;;1.33;;
67185;SDS011;54116;53.518;49.398;2023-04-16T12:58:50;4.82;;;1.52;;
67185;SDS011;54116;53.518;49.398;2023-04-16T13:01:17;6.07;;;1.17;;
67185;SDS011;54116;53.518;49.398;2023-04-16T13:03:44;2.50;;;1.02;;
67185;SDS011;54116;53.518;49.398;2023-04-16T13:06:11;6.72;;;1.42;;
67185;SDS011;54116;53.518;49.398;2023-04-16T13:08:39;5.70;;;1.30;;
67185;SDS011;54116;53.518;49.398;2023-04-16T13:11:06;4.97;;;1.38;;
67185;SDS011;54116;53.518;49.398;2023-04-16T13:13:33;3.22;;;1.25;;
67185;SDS011;54116;53.518;49.398;2023-04-16T13:16:00;2.63;;;1.25;;
67185;SDS011;54116;53.518;49.398;2023-04-16T13:18:28;4.03;;;1.10;;
67185;SDS011;54116;53.518;49.398;2023-04-16T13:20:55;2.22;;;0.68;;
67185;SDS011;54116;53.518;49.398;2023-04-16T13:23:21;3.65;;;1.10;;
67185;SDS011;54116;53.518;49.398;2023-04-16T13:25:48;2.78;;;1.45;;
67185;SDS011;54116;53.518;49.398;2023-04-16T13:28:14;3.70;;;1.30;;
67185;SDS011;54116;53.518;49.398;2023-04-16T13:30:59;5.70;;;0.77;;
67185;SDS011;54116;53.518;49.398;2023-04-16T13:33:25;4.25;;;0.98;;
67185;SDS011;54116;53.518;49.398;2023-04-16T13:35:52;2.90;;;1.17;;
67185;SDS011;54116;53.518;49.398;2023-04-16T13:41:21;3.97;;;0.82;;
67185;SDS011;54116;53.518;49.398;2023-04-16T13:43:47;3.53;;;1.02;;
67185;SDS011;54116;53.518;49.398;2023-04-16T13:46:14;4.75;;;1.60;;
67185;SDS011;54116;53.518;49.398;2023-04-16T13:48:40;3.78;;;1.45;;
67185;SDS011;54116;53.518;49.398;2023-04-16T13:51:07;4.72;;;1.30;;
67185;SDS011;54116;53.518;49.398;2023-04-16T13:53:55;5.13;;;1.88;;
67185;SDS011;54116;53.518;49.398;2023-04-16T13:56:21;5.50;;;1.35;;
67185;SDS011;54116;53.518;49.398;2023-04-16T13:58:47;6.07;;;2.28;;
67185;SDS011;54116;53.518;49.398;2023-04-16T14:01:32;4.05;;;1.33;;
67185;SDS011;54116;53.518;49.398;2023-04-16T14:04:17;6.40;;;1.88;;
67185;SDS011;54116;53.518;49.398;2023-04-16T14:06:44;4.47;;;1.77;;
67185;SDS011;54116;53.518;49.398;2023-04-16T14:11:56;2.78;;;1.23;;
67185;SDS011;54116;53.518;49.398;2023-04-16T14:17:07;2.90;;;1.55;;
67185;SDS011;54116;53.518;49.398;2023-04-16T14:19:33;5.30;;;1.75;;
67185;SDS011;54116;53.518;49.398;2023-04-16T14:22:00;7.60;;;2.00;;
67185;SDS011;54116;53.518;49.398;2023-04-16T14:24:26;4.80;;;1.45;;
67185;SDS011;54116;53.518;49.398;2023-04-16T14:27:11;5.65;;;1.65;;
67185;SDS011;54116;53.518;49.398;2023-04-16T14:29:56;5.03;;;1.25;;
67185;SDS011;54116;53.518;49.398;2023-04-16T14:32:22;6.38;;;1.52;;
67185;SDS011;54116;53.518;49.398;2023-04-16T14:37:35;4.05;;;0.95;;
67185;SDS011;54116;53.518;49.398;2023-04-16T14:40:01;6.78;;;1.20;;
67185;SDS011;54116;53.518;49.398;2023-04-16T14:42:33;7.30;;;1.73;;
67185;SDS011;54116;53.518;49.398;2023-04-16T14:47:46;4.47;;;1.38;;
67185;SDS011;54116;53.518;49.398;2023-04-16T14:50:13;3.85;;;1.85;;
67185;SDS011;54116;53.518;49.398;2023-04-16T14:52:40;7.32;;;1.77;;
67185;SDS011;54116;53.518;49.398;2023-04-16T14:55:11;5.63;;;2.05;;
67185;SDS011;54116;53.518;49.398;2023-04-16T14:57:38;4.95;;;2.03;;
67185;SDS011;54116;53.518;49.398;2023-04-16T15:00:06;8.73;;;2.88;;
67185;SDS011;54116;53.518;49.398;2023-04-16T15:02:36;4.15;;;1.40;;
67185;SDS011;54116;53.518;49.398;2023-04-16T15:05:03;6.28;;;1.92;;
67185;SDS011;54116;53.518;49.398;2023-04-16T15:07:30;3.78;;;1.65;;
67185;SDS011;54116;53.518;49.398;2023-04-16T15:15:08;7.38;;;2.05;;
67185;SDS011;54116;53.518;49.398;2023-04-16T15:17:35;5.75;;;1.50;;
67185;SDS011;54116;53.518;49.398;2023-04-16T15:20:01;6.70;;;2.00;;
67185;SDS011;54116;53.518;49.398;2023-04-16T15:22:31;6.00;;;1.88;;
67185;SDS011;54116;53.518;49.398;2023-04-16T15:24:57;6.15;;;1.90;;
67185;SDS011;54116;53.518;49.398;2023-04-16T15:27:42;6.95;;;2.22;;
67185;SDS011;54116;53.518;49.398;2023-04-16T15:30:08;5.38;;;2.17;;
67185;SDS011;54116;53.518;49.398;2023-04-16T15:32:35;11.50;;;3.63;;
67185;SDS011;54116;53.518;49.398;2023-04-16T15:35:19;6.38;;;2.15;;
67185;SDS011;54116;53.518;49.398;2023-04-16T15:37:46;5.68;;;1.83;;
67185;SDS011;54116;53.518;49.398;2023-04-16T15:40:12;5.78;;;2.08;;
67185;SDS011;54116;53.518;49.398;2023-04-16T15:42:41;5.50;;;1.60;;
67185;SDS011;54116;53.518;49.398;2023-04-16T15:45:08;7.88;;;2.38;;
67185;SDS011;54116;53.518;49.398;2023-04-16T15:47:34;7.85;;;2.20;;
67185;SDS011;54116;53.518;49.398;2023-04-16T15:50:19;8.38;;;2.20;;
67185;SDS011;54116;53.518;49.398;2023-04-16T15:53:04;11.10;;;2.97;;
67185;SDS011;54116;53.518;49.398;2023-04-16T15:55:49;5.20;;;1.90;;
67185;SDS011;54116;53.518;49.398;2023-04-16T15:58:17;6.40;;;2.00;;
67185;SDS011;54116;53.518;49.398;2023-04-16T16:00:48;12.23;;;3.15;;
67185;SDS011;54116;53.518;49.398;2023-04-16T16:06:01;17.35;;;3.70;;
67185;SDS011;54116;53.518;49.398;2023-04-16T16:08:32;6.85;;;1.77;;
67185;SDS011;54116;53.518;49.398;2023-04-16T16:11:17;7.53;;;2.40;;
67185;SDS011;54116;53.518;49.398;2023-04-16T16:14:02;10.05;;;2.67;;
67185;SDS011;54116;53.518;49.398;2023-04-16T16:16:47;11.93;;;3.55;;
67185;SDS011;54116;53.518;49.398;2023-04-16T16:19:32;6.80;;;2.90;;
67185;SDS011;54116;53.518;49.398;2023-04-16T16:21:58;10.05;;;3.40;;
67185;SDS011;54116;53.518;49.398;2023-04-16T16:25:02;7.93;;;3.03;;
67185;SDS011;54116;53.518;49.398;2023-04-16T16:27:48;13.38;;;4.30;;
67185;SDS011;54116;53.518;49.398;2023-04-16T16:30:33;14.98;;;3.88;;
67185;SDS011;54116;53.518;49.398;2023-04-16T16:32:59;21.45;;;8.85;;
67185;SDS011;54116;53.518;49.398;2023-04-16T16:35:25;17.88;;;6.57;;
67185;SDS011;54116;53.518;49.398;2023-04-16T16:37:51;35.22;;;8.10;;
67185;SDS011;54116;53.518;49.398;2023-04-16T16:43:07;20.55;;;6.45;;